createdAt,value
2023-04-19T00:00:14.907Z,101800.53
2023-04-19T00:02:43.409Z,101813.03
2023-04-19T00:05:11.982Z,101815.06
2023-04-19T00:07:41.322Z,101817.16
2023-04-19T00:10:10.203Z,101812.75
2023-04-19T00:12:38.043Z,101812.56
2023-04-19T00:15:06.832Z,101814.88
2023-04-19T00:17:34.859Z,101803.78
2023-04-19T00:20:03.074Z,101825.13
2023-04-19T00:22:30.879Z,101818.03
2023-04-19T00:24:59.965Z,101810.56
2023-04-19T00:27:27.641Z,101819.47
2023-04-19T00:29:55.317Z,101817.59
2023-04-19T00:32:23.025Z,101801.00
2023-04-19T00:34:50.774Z,101790.75
2023-04-19T00:37:18.552Z,101796.47
2023-04-19T00:39:46.233Z,101785.47
2023-04-19T00:42:15.704Z,101793.34
2023-04-19T00:44:43.537Z,101798.72
2023-04-19T00:47:11.231Z,101781.53
2023-04-19T00:49:38.973Z,101773.78
2023-04-19T00:52:06.915Z,101783.59
2023-04-19T00:54:34.728Z,101781.75
2023-04-19T00:57:03.025Z,101787.75
2023-04-19T00:59:32.171Z,101766.19
2023-04-19T01:01:59.947Z,101776.13
2023-04-19T01:04:28.161Z,101771.97
2023-04-19T01:06:56.069Z,101785.66
2023-04-19T01:09:23.717Z,101779.88
2023-04-19T01:11:51.976Z,101773.84
2023-04-19T01:14:19.614Z,101766.94
2023-04-19T01:16:49.130Z,101770.19
2023-04-19T01:19:16.809Z,101779.00
2023-04-19T01:21:44.612Z,101770.56
2023-04-19T01:24:14.072Z,101760.81
2023-04-19T01:26:41.970Z,101777.38
2023-04-19T01:29:09.664Z,101760.50
2023-04-19T01:31:37.371Z,101761.94
2023-04-19T01:34:05.648Z,101754.09
2023-04-19T01:36:33.344Z,101769.75
2023-04-19T01:39:01.308Z,101778.66
2023-04-19T01:41:31.042Z,101773.53
2023-04-19T01:43:58.762Z,101761.53
2023-04-19T01:46:26.468Z,101764.16
2023-04-19T01:48:54.174Z,101778.69
2023-04-19T01:51:22.282Z,101763.81
2023-04-19T01:53:52.475Z,101766.09
2023-04-19T01:56:20.284Z,101767.22
2023-04-19T01:58:49.493Z,101776.19
2023-04-19T02:01:17.219Z,101769.88
2023-04-19T02:03:45.221Z,101773.44
2023-04-19T02:06:13.544Z,101763.50
2023-04-19T02:08:41.341Z,101772.81
2023-04-19T02:11:09.786Z,101769.00
2023-04-19T02:13:37.524Z,101767.97
2023-04-19T02:16:07.515Z,101753.13
2023-04-19T02:18:38.454Z,101750.00
2023-04-19T02:21:06.943Z,101754.31
2023-04-19T02:23:35.482Z,101745.34
2023-04-19T02:26:03.778Z,101750.28
2023-04-19T02:28:31.726Z,101758.28
2023-04-19T02:30:59.497Z,101760.50
2023-04-19T02:33:29.175Z,101759.91
2023-04-19T02:35:56.879Z,101747.13
2023-04-19T02:38:24.704Z,101766.19
2023-04-19T02:40:52.421Z,101759.00
2023-04-19T02:43:20.121Z,101769.38
2023-04-19T02:45:47.914Z,101764.78
2023-04-19T02:48:15.650Z,101771.50
2023-04-19T02:50:44.729Z,101760.19
2023-04-19T02:53:12.445Z,101758.88
2023-04-19T02:55:40.678Z,101781.94
2023-04-19T02:58:08.644Z,101764.88
2023-04-19T03:03:46.191Z,101756.38
2023-04-19T03:06:16.935Z,101762.78
2023-04-19T03:08:45.067Z,101760.56
2023-04-19T03:11:13.348Z,101780.06
2023-04-19T03:13:41.110Z,101775.50
2023-04-19T03:16:09.811Z,101764.84
2023-04-19T03:18:37.685Z,101762.44
2023-04-19T03:21:05.678Z,101764.09
2023-04-19T03:23:34.772Z,101756.47
2023-04-19T03:26:02.491Z,101768.66
2023-04-19T03:28:30.263Z,101765.69
2023-04-19T03:30:58.073Z,101775.25
2023-04-19T03:33:25.779Z,101766.06
2023-04-19T03:35:53.483Z,101763.69
2023-04-19T03:38:21.172Z,101764.50
2023-04-19T03:40:50.290Z,101769.69
2023-04-19T03:43:18.531Z,101771.50
2023-04-19T03:45:46.237Z,101757.16
2023-04-19T03:48:13.926Z,101768.69
2023-04-19T03:50:41.750Z,101770.31
2023-04-19T03:53:10.366Z,101784.88
2023-04-19T03:55:38.297Z,101773.84
2023-04-19T03:58:07.364Z,101768.59
2023-04-19T04:00:35.084Z,101781.28
2023-04-19T04:03:02.916Z,101777.78
2023-04-19T04:05:31.502Z,101769.94
2023-04-19T04:07:59.311Z,101763.69
2023-04-19T04:10:27.130Z,101780.06
2023-04-19T04:12:55.225Z,101768.41
2023-04-19T04:15:24.338Z,101770.63
2023-04-19T04:17:52.312Z,101769.47
2023-04-19T04:20:20.359Z,101787.34
2023-04-19T04:22:48.090Z,101783.16
2023-04-19T04:25:16.682Z,101784.41
2023-04-19T04:27:45.064Z,101789.25
2023-04-19T04:30:13.294Z,101786.38
2023-04-19T04:32:43.461Z,101773.78
2023-04-19T04:35:12.277Z,101769.44
2023-04-19T04:37:40.271Z,101779.09
2023-04-19T04:40:09.858Z,101786.59
2023-04-19T04:42:38.252Z,101767.47
2023-04-19T04:45:07.133Z,101786.22
2023-04-19T04:47:35.785Z,101792.91
2023-04-19T04:50:06.083Z,101803.75
2023-04-19T04:52:34.089Z,101796.72
2023-04-19T04:55:01.847Z,101794.38
2023-04-19T04:57:29.618Z,101798.22
2023-04-19T04:59:57.597Z,101782.06
2023-04-19T05:02:25.736Z,101794.97
2023-04-19T05:04:53.528Z,101777.72
2023-04-19T05:07:22.822Z,101781.22
2023-04-19T05:09:50.597Z,101800.38
2023-04-19T05:12:18.303Z,101805.44
2023-04-19T05:14:46.038Z,101796.16
2023-04-19T05:17:13.719Z,101800.44
2023-04-19T05:19:41.491Z,101796.78
2023-04-19T05:22:09.282Z,101802.59
2023-04-19T05:24:39.305Z,101797.81
2023-04-19T05:27:08.336Z,101788.41
2023-04-19T05:29:36.096Z,101795.47
2023-04-19T05:32:03.787Z,101799.75
2023-04-19T05:34:31.565Z,101811.00
2023-04-19T05:36:59.262Z,101809.19
2023-04-19T05:39:27.334Z,101814.03
2023-04-19T05:41:56.488Z,101821.38
2023-04-19T05:44:24.196Z,101817.44
2023-04-19T05:46:51.918Z,101812.34
2023-04-19T05:49:19.658Z,101817.84
2023-04-19T05:51:47.441Z,101808.19
2023-04-19T05:54:15.430Z,101821.38
2023-04-19T05:56:43.625Z,101818.13
2023-04-19T05:59:14.104Z,101834.69
2023-04-19T06:01:42.229Z,101826.44
2023-04-19T06:04:10.460Z,101826.63
2023-04-19T06:06:38.772Z,101824.13
2023-04-19T06:09:07.171Z,101814.56
2023-04-19T06:11:49.467Z,101823.34
2023-04-19T06:14:20.215Z,101817.94
2023-04-19T06:16:48.070Z,101828.53
2023-04-19T06:19:16.031Z,101820.44
2023-04-19T06:21:43.741Z,101821.50
2023-04-19T06:24:11.657Z,101815.16
2023-04-19T06:26:39.391Z,101842.16
2023-04-19T06:29:07.501Z,101828.19
2023-04-19T06:31:36.691Z,101818.09
2023-04-19T06:34:04.545Z,101821.63
2023-04-19T06:36:32.603Z,101814.75
2023-04-19T06:39:00.524Z,101828.72
2023-04-19T06:41:28.262Z,101825.19
2023-04-19T06:43:56.231Z,101823.59
2023-04-19T06:46:23.963Z,101837.69
2023-04-19T06:48:53.150Z,101827.13
2023-04-19T06:51:20.864Z,101823.16
2023-04-19T06:53:54.850Z,101819.28
2023-04-19T06:56:40.847Z,101824.97
2023-04-19T06:59:08.666Z,101838.25
2023-04-19T07:01:36.588Z,101828.19
2023-04-19T07:04:06.033Z,101835.00
2023-04-19T07:06:33.990Z,101823.63
2023-04-19T07:09:01.697Z,101825.69
2023-04-19T07:16:57.380Z,101827.97
2023-04-19T07:19:28.264Z,101819.44
2023-04-19T07:21:57.961Z,101833.09
2023-04-19T07:27:47.195Z,101828.03
2023-04-19T07:30:40.226Z,101823.41
2023-04-19T07:42:31.016Z,101819.16
2023-04-19T07:48:01.971Z,101818.97
2023-04-19T07:50:32.166Z,101813.22
2023-04-19T07:53:10.201Z,101814.88
2023-04-19T07:55:39.833Z,101799.16
2023-04-19T07:58:07.551Z,101805.34
2023-04-19T08:00:54.776Z,101811.84
2023-04-19T08:09:00.966Z,101807.66
2023-04-19T08:15:19.585Z,101804.69
2023-04-19T08:20:38.899Z,101789.00
2023-04-19T08:23:20.496Z,101806.47
2023-04-19T08:28:32.393Z,101776.88
2023-04-19T08:33:43.438Z,101809.25
2023-04-19T08:36:11.668Z,101788.44
2023-04-19T08:38:44.562Z,101804.28
2023-04-19T08:41:14.759Z,101811.25
2023-04-19T08:43:44.802Z,101802.69
2023-04-19T08:46:14.495Z,101792.44
2023-04-19T08:48:42.316Z,101796.41
2023-04-19T08:51:11.976Z,101787.19
2023-04-19T08:53:40.521Z,101778.69
2023-04-19T08:56:20.650Z,101784.16
2023-04-19T08:59:01.052Z,101777.91
2023-04-19T09:01:44.485Z,101778.34
2023-04-19T09:06:43.673Z,101753.22
2023-04-19T09:11:50.966Z,101768.63
2023-04-19T09:14:20.174Z,101758.59
2023-04-19T09:16:51.956Z,101763.25
2023-04-19T09:19:24.947Z,101750.31
2023-04-19T09:21:54.846Z,101762.94
2023-04-19T09:27:11.980Z,101746.09
2023-04-19T09:29:39.870Z,101740.06
2023-04-19T09:32:09.160Z,101746.97
2023-04-19T09:34:37.039Z,101759.94
2023-04-19T09:37:22.846Z,101747.25
2023-04-19T09:40:03.109Z,101752.25
2023-04-19T09:43:04.318Z,101728.38
2023-04-19T09:45:44.050Z,101729.91
2023-04-19T09:48:14.656Z,101724.63
2023-04-19T09:50:58.514Z,101740.91
2023-04-19T09:53:29.940Z,101743.88
2023-04-19T09:56:01.910Z,101729.66
2023-04-19T10:01:13.511Z,101727.72
2023-04-19T10:03:44.762Z,101729.09
2023-04-19T10:06:26.974Z,101717.19
2023-04-19T10:09:03.364Z,101715.28
2023-04-19T10:11:37.256Z,101731.78
2023-04-19T10:14:07.226Z,101727.88
2023-04-19T10:16:35.707Z,101737.13
2023-04-19T10:19:08.702Z,101724.41
2023-04-19T10:21:38.723Z,101728.88
2023-04-19T10:24:07.478Z,101731.56
2023-04-19T10:27:08.810Z,101703.81
2023-04-19T10:29:58.938Z,101706.16
2023-04-19T10:32:28.942Z,101707.16
2023-04-19T10:35:02.802Z,101707.72
2023-04-19T10:37:33.744Z,101703.28
2023-04-19T10:40:01.523Z,101716.59
2023-04-19T10:43:02.798Z,101689.78
2023-04-19T10:45:34.152Z,101678.97
2023-04-19T10:48:04.277Z,101694.41
2023-04-19T10:50:59.382Z,101675.56
2023-04-19T10:53:50.849Z,101660.25
2023-04-19T10:56:19.870Z,101677.66
2023-04-19T11:00:04.753Z,101668.19
2023-04-19T11:02:38.777Z,101648.38
2023-04-19T11:05:09.317Z,101651.75
2023-04-19T11:07:42.722Z,101631.00
2023-04-19T11:10:11.809Z,101642.94
2023-04-19T11:12:43.489Z,101628.25
2023-04-19T11:15:12.082Z,101634.19
2023-04-19T11:17:39.891Z,101640.25
2023-04-19T11:20:10.022Z,101622.47
2023-04-19T11:22:39.227Z,101607.72
2023-04-19T11:25:10.085Z,101612.41
2023-04-19T11:27:37.989Z,101606.06
2023-04-19T11:30:06.860Z,101590.72
2023-04-19T11:32:34.923Z,101597.72
2023-04-19T11:35:07.686Z,101606.81
2023-04-19T11:37:36.468Z,101593.53
2023-04-19T11:40:06.483Z,101598.34
2023-04-19T11:42:35.885Z,101587.63
2023-04-19T11:45:05.196Z,101592.59
2023-04-19T11:47:35.368Z,101582.81
2023-04-19T11:50:34.324Z,101595.28
2023-04-19T11:53:11.559Z,101571.19
2023-04-19T11:55:39.495Z,101579.13
2023-04-19T11:58:10.675Z,101581.81
2023-04-19T12:00:38.607Z,101566.53
2023-04-19T12:03:06.686Z,101559.47
2023-04-19T12:05:34.937Z,101542.13
2023-04-19T12:08:04.010Z,101547.63
2023-04-19T12:10:32.226Z,101567.88
2023-04-19T12:13:00.054Z,101557.25
2023-04-19T12:18:19.962Z,101534.91
2023-04-19T12:20:49.504Z,101536.47
2023-04-19T12:23:18.515Z,101546.03
2023-04-19T12:25:47.518Z,101531.56
2023-04-19T12:28:16.400Z,101527.09
2023-04-19T12:30:44.759Z,101537.47
2023-04-19T12:33:12.646Z,101528.66
2023-04-19T12:35:42.946Z,101527.16
2023-04-19T12:38:13.886Z,101521.22
2023-04-19T12:40:41.773Z,101537.19
2023-04-19T12:43:09.561Z,101514.03
2023-04-19T12:45:37.679Z,101523.25
2023-04-19T12:48:07.238Z,101513.66
2023-04-19T12:50:35.392Z,101532.44
2023-04-19T12:53:04.522Z,101501.91
2023-04-19T12:55:32.254Z,101510.22
2023-04-19T12:58:00.177Z,101505.50
2023-04-19T13:00:28.107Z,101503.84
2023-04-19T13:02:56.536Z,101508.38
2023-04-19T13:05:24.988Z,101514.19
2023-04-19T13:07:53.048Z,101509.91
2023-04-19T13:10:22.585Z,101495.97
2023-04-19T13:12:50.702Z,101477.13
2023-04-19T13:15:18.473Z,101483.09
2023-04-19T13:17:46.618Z,101489.34
2023-04-19T13:20:14.411Z,101485.28
2023-04-19T13:22:42.516Z,101467.69
2023-04-19T13:25:11.152Z,101464.31
2023-04-19T13:27:40.729Z,101462.25
2023-04-19T13:30:10.069Z,101459.97
2023-04-19T13:32:37.909Z,101456.31
2023-04-19T13:35:06.292Z,101450.06
2023-04-19T13:37:34.099Z,101453.00
2023-04-19T13:40:17.531Z,101441.47
2023-04-19T13:42:47.884Z,101439.81
2023-04-19T13:45:15.878Z,101425.75
2023-04-19T13:47:43.661Z,101430.44
2023-04-19T13:50:13.021Z,101452.41
2023-04-19T13:52:42.330Z,101420.13
2023-04-19T13:55:10.927Z,101426.97
2023-04-19T13:57:38.830Z,101411.88
2023-04-19T14:00:09.636Z,101412.78
2023-04-19T14:02:37.965Z,101416.97
2023-04-19T14:05:07.023Z,101423.78
2023-04-19T14:07:34.982Z,101406.47
2023-04-19T14:10:02.759Z,101392.22
2023-04-19T14:12:30.738Z,101406.06
2023-04-19T14:14:58.961Z,101407.03
2023-04-19T14:17:28.149Z,101399.47
2023-04-19T14:19:56.552Z,101412.59
2023-04-19T14:22:24.337Z,101385.00
2023-04-19T14:24:52.190Z,101386.88
2023-04-19T14:27:29.184Z,101376.47
2023-04-19T14:29:58.965Z,101373.81
2023-04-19T14:32:28.397Z,101403.88
2023-04-19T14:34:56.913Z,101376.34
2023-04-19T14:37:34.402Z,101387.47
2023-04-19T14:40:02.195Z,101388.25
2023-04-19T14:42:30.103Z,101377.16
2023-04-19T14:44:58.900Z,101399.16
2023-04-19T14:47:28.218Z,101369.13
2023-04-19T14:49:56.148Z,101355.56
2023-04-19T14:52:24.497Z,101364.41
2023-04-19T14:54:52.552Z,101376.81
2023-04-19T14:57:20.402Z,101373.78
2023-04-19T14:59:48.169Z,101369.00
2023-04-19T15:02:16.668Z,101360.91
2023-04-19T15:04:46.073Z,101377.63
2023-04-19T15:07:14.138Z,101388.50
2023-04-19T15:09:41.810Z,101395.56
2023-04-19T15:12:09.713Z,101348.63
2023-04-19T15:14:37.740Z,101360.41
2023-04-19T15:17:06.014Z,101376.50
2023-04-19T15:19:33.962Z,101361.19
2023-04-19T15:22:04.186Z,101344.22
2023-04-19T15:24:32.036Z,101368.38
2023-04-19T15:27:00.224Z,101341.91
2023-04-19T15:29:28.314Z,101345.03
2023-04-19T15:31:56.241Z,101348.03
2023-04-19T15:34:25.575Z,101353.31
2023-04-19T15:36:53.518Z,101380.00
2023-04-19T15:39:22.668Z,101360.97
2023-04-19T15:41:50.736Z,101375.72
2023-04-19T15:44:18.459Z,101344.66
2023-04-19T15:46:46.439Z,101346.19
2023-04-19T15:49:14.395Z,101339.59
2023-04-19T15:51:42.524Z,101335.09
2023-04-19T15:54:11.425Z,101346.41
2023-04-19T15:56:41.149Z,101346.66
2023-04-19T15:59:09.115Z,101338.31
2023-04-19T16:01:38.610Z,101343.75
2023-04-19T16:04:06.644Z,101347.66
2023-04-19T16:06:34.720Z,101333.53
2023-04-19T16:09:02.539Z,101332.00
2023-04-19T16:11:30.929Z,101351.16
2023-04-19T16:14:00.589Z,101349.00
2023-04-19T16:16:31.613Z,101359.91
2023-04-19T16:18:59.375Z,101344.63
2023-04-19T16:21:28.928Z,101348.66
2023-04-19T16:23:57.229Z,101342.06
2023-04-19T16:26:25.377Z,101367.78
2023-04-19T16:28:53.121Z,101360.59
2023-04-19T16:31:22.340Z,101353.84
2023-04-19T16:33:50.095Z,101354.47
2023-04-19T16:36:17.854Z,101379.81
2023-04-19T16:38:45.830Z,101359.53
2023-04-19T16:41:13.558Z,101361.66
2023-04-19T16:43:41.252Z,101352.75
2023-04-19T16:46:09.307Z,101345.00
2023-04-19T16:48:38.840Z,101347.38
2023-04-19T16:51:06.960Z,101355.44
2023-04-19T16:53:35.069Z,101345.66
2023-04-19T16:56:03.983Z,101355.44
2023-04-19T16:58:32.072Z,101348.47
2023-04-19T17:01:02.079Z,101359.53
2023-04-19T17:03:30.880Z,101363.91
2023-04-19T17:06:00.669Z,101346.03
2023-04-19T17:08:28.992Z,101352.97
2023-04-19T17:10:57.301Z,101350.19
2023-04-19T17:13:25.344Z,101349.97
2023-04-19T17:15:54.036Z,101352.88
2023-04-19T17:18:22.480Z,101343.06
2023-04-19T17:20:50.478Z,101344.56
2023-04-19T17:23:19.764Z,101354.34
2023-04-19T17:25:47.969Z,101337.84
2023-04-19T17:28:16.464Z,101340.56
2023-04-19T17:30:44.215Z,101347.66
2023-04-19T17:33:12.137Z,101343.91
2023-04-19T17:35:40.099Z,101350.00
2023-04-19T17:38:08.015Z,101347.19
2023-04-19T17:40:37.914Z,101352.59
2023-04-19T17:43:06.038Z,101347.88
2023-04-19T17:45:37.479Z,101352.31
2023-04-19T17:48:05.936Z,101353.75
2023-04-19T17:50:33.801Z,101347.19
2023-04-19T17:53:01.787Z,101358.53
2023-04-19T17:55:29.751Z,101344.34
2023-04-19T17:57:59.694Z,101355.38
2023-04-19T18:00:27.494Z,101341.63
2023-04-19T18:02:55.438Z,101333.66
2023-04-19T18:05:24.000Z,101342.69
2023-04-19T18:07:51.729Z,101357.75
2023-04-19T18:10:19.547Z,101357.22
2023-04-19T18:12:47.259Z,101360.75
2023-04-19T18:15:16.527Z,101364.13
2023-04-19T18:17:44.440Z,101362.34
2023-04-19T18:20:13.866Z,101355.66
2023-04-19T18:22:41.977Z,101363.53
2023-04-19T18:25:10.930Z,101365.69
2023-04-19T18:27:38.908Z,101363.66
2023-04-19T18:30:07.818Z,101353.91
2023-04-19T18:32:37.314Z,101357.06
2023-04-19T18:35:05.853Z,101337.25
2023-04-19T18:37:33.873Z,101358.63
2023-04-19T18:40:23.530Z,101359.59
2023-04-19T18:42:51.523Z,101363.97
2023-04-19T18:45:19.253Z,101377.69
2023-04-19T18:47:48.586Z,101373.22
2023-04-19T18:50:19.190Z,101373.75
2023-04-19T18:52:47.168Z,101380.28
2023-04-19T18:55:16.083Z,101380.22
2023-04-19T18:57:44.052Z,101387.25
2023-04-19T19:00:13.047Z,101385.53
2023-04-19T19:02:41.684Z,101387.63
2023-04-19T19:05:13.846Z,101390.16
2023-04-19T19:07:42.127Z,101389.13
2023-04-19T19:12:43.049Z,101393.88
2023-04-19T19:15:11.932Z,101395.25
2023-04-19T19:17:40.133Z,101405.78
2023-04-19T19:20:09.682Z,101396.47
2023-04-19T19:22:39.184Z,101394.28
2023-04-19T19:25:08.001Z,101389.06
2023-04-19T19:27:35.895Z,101395.59
2023-04-19T19:30:03.880Z,101393.81
2023-04-19T19:32:32.593Z,101391.44
2023-04-19T19:35:04.803Z,101383.63
2023-04-19T19:37:34.171Z,101395.13
2023-04-19T19:40:05.264Z,101382.75
2023-04-19T19:42:33.919Z,101401.41
2023-04-19T19:45:02.176Z,101394.47
2023-04-19T19:47:31.608Z,101394.56
2023-04-19T19:52:31.900Z,101385.28
2023-04-19T19:55:00.169Z,101370.69
2023-04-19T19:58:18.551Z,101391.28
2023-04-19T20:05:21.049Z,101400.88
2023-04-19T20:08:00.938Z,101386.91
2023-04-19T20:10:30.839Z,101381.53
2023-04-19T20:13:01.489Z,101376.81
2023-04-19T20:15:30.283Z,101392.59
2023-04-19T20:17:58.479Z,101381.97
2023-04-19T20:20:26.299Z,101383.63
2023-04-19T20:22:56.496Z,101398.75
2023-04-19T20:25:24.214Z,101390.81
2023-04-19T20:27:51.925Z,101389.13
2023-04-19T20:30:21.217Z,101371.06
2023-04-19T20:32:50.312Z,101381.31
2023-04-19T20:38:58.964Z,101389.50
2023-04-19T20:41:27.085Z,101385.88
2023-04-19T20:43:59.994Z,101382.38
2023-04-19T20:46:29.488Z,101375.25
2023-04-19T20:48:57.667Z,101370.13
2023-04-19T20:51:27.225Z,101366.88
2023-04-19T20:56:43.662Z,101372.59
2023-04-19T20:59:11.680Z,101372.88
2023-04-19T21:01:41.589Z,101372.38
2023-04-19T21:04:09.429Z,101372.13
2023-04-19T21:06:37.171Z,101367.75
2023-04-19T21:09:05.157Z,101357.22
2023-04-19T21:11:33.338Z,101358.72
2023-04-19T21:14:01.139Z,101365.25
2023-04-19T21:16:28.969Z,101361.13
2023-04-19T21:18:58.112Z,101370.19
2023-04-19T21:21:26.342Z,101367.91
2023-04-19T21:23:54.024Z,101367.69
2023-04-19T21:35:10.893Z,101385.81
2023-04-19T21:37:38.647Z,101382.06
2023-04-19T21:40:07.620Z,101377.72
2023-04-19T21:42:35.628Z,101371.50
2023-04-19T21:45:03.470Z,101370.28
2023-04-19T21:47:31.937Z,101365.94
2023-04-19T21:49:59.871Z,101352.88
2023-04-19T21:52:29.022Z,101360.78
2023-04-19T21:54:56.872Z,101342.38
2023-04-19T21:57:25.959Z,101345.03
2023-04-19T21:59:53.723Z,101331.91
2023-04-19T22:02:21.469Z,101342.38
2023-04-19T22:04:49.899Z,101340.91
2023-04-19T22:07:18.775Z,101344.44
2023-04-19T22:09:47.946Z,101342.81
2023-04-19T22:12:15.672Z,101341.56
2023-04-19T22:14:43.689Z,101326.88
2023-04-19T22:17:12.533Z,101342.06
2023-04-19T22:19:40.404Z,101335.13
2023-04-19T22:22:08.227Z,101331.84
2023-04-19T22:24:43.941Z,101332.66
2023-04-19T22:27:22.745Z,101328.94
2023-04-19T22:29:50.515Z,101337.19
2023-04-19T22:32:18.446Z,101315.50
2023-04-19T22:34:46.250Z,101321.69
2023-04-19T22:37:14.088Z,101310.31
2023-04-19T22:39:41.881Z,101290.09
2023-04-19T22:42:09.619Z,101282.63
2023-04-19T22:44:38.692Z,101288.09
2023-04-19T22:47:06.484Z,101290.78
2023-04-19T22:49:35.170Z,101293.38
2023-04-19T22:52:02.961Z,101283.88
2023-04-19T22:54:31.167Z,101261.56
2023-04-19T22:56:58.883Z,101260.72
2023-04-19T22:59:26.604Z,101263.63
2023-04-19T23:01:55.972Z,101254.28
2023-04-19T23:04:24.124Z,101251.41
2023-04-19T23:06:52.673Z,101246.25
2023-04-19T23:09:20.428Z,101245.88
2023-04-19T23:11:48.936Z,101248.78
2023-04-19T23:14:18.450Z,101244.81
2023-04-19T23:16:46.551Z,101243.78
2023-04-19T23:19:16.600Z,101246.25
2023-04-19T23:21:44.983Z,101247.09
2023-04-19T23:24:12.947Z,101252.88
2023-04-19T23:26:40.629Z,101235.75
2023-04-19T23:29:08.447Z,101232.09
2023-04-19T23:31:39.251Z,101232.84
2023-04-19T23:34:07.238Z,101224.22
2023-04-19T23:36:36.708Z,101210.97
2023-04-19T23:39:05.046Z,101220.69
2023-04-19T23:41:32.866Z,101217.41
2023-04-19T23:44:00.604Z,101203.72
2023-04-19T23:46:28.380Z,101198.47
2023-04-19T23:48:56.177Z,101204.78
2023-04-19T23:51:23.906Z,101195.75
2023-04-19T23:53:53.158Z,101198.63
2023-04-19T23:56:21.202Z,101191.31
2023-04-19T23:58:48.885Z,101172.16
